createdAt,value
2018-03-04T00:01:47.056Z,46.97
2018-03-04T00:04:14.536Z,42.80
2018-03-04T00:06:42.013Z,37.10
2018-03-04T00:09:10.275Z,45.33
2018-03-04T00:11:37.748Z,49.97
2018-03-04T00:14:05.987Z,49.17
2018-03-04T00:16:33.457Z,47.30
2018-03-04T00:19:00.972Z,50.40
2018-03-04T00:21:28.437Z,40.10
2018-03-04T00:23:55.908Z,45.93
2018-03-04T00:26:23.391Z,40.53
2018-03-04T00:28:52.476Z,46.53
2018-03-04T00:31:19.965Z,49.60
2018-03-04T00:33:48.251Z,33.73
2018-03-04T00:36:16.269Z,43.33
2018-03-04T00:38:44.464Z,51.00
2018-03-04T00:41:12.757Z,47.70
2018-03-04T00:43:40.219Z,46.77
2018-03-04T00:46:07.735Z,32.97
2018-03-04T00:48:35.206Z,50.77
2018-03-04T00:51:03.471Z,45.60
2018-03-04T00:53:30.948Z,36.47
2018-03-04T00:55:59.222Z,48.77
2018-03-04T00:58:27.462Z,51.93
2018-03-04T01:00:54.936Z,45.60
2018-03-04T01:03:23.183Z,42.07
2018-03-04T01:05:50.675Z,52.43
2018-03-04T01:08:20.354Z,40.67
2018-03-04T01:10:47.833Z,38.37
2018-03-04T01:13:16.089Z,42.47
2018-03-04T01:15:43.563Z,45.90
2018-03-04T01:18:11.055Z,46.80
2018-03-04T01:20:38.548Z,50.53
2018-03-04T01:23:06.062Z,47.77
2018-03-04T01:25:33.531Z,42.33
2018-03-04T01:28:01.057Z,51.57
2018-03-04T01:30:28.523Z,40.37
2018-03-04T01:32:56.118Z,49.93
2018-03-04T01:35:23.639Z,52.50
2018-03-04T01:37:52.340Z,41.90
2018-03-04T01:40:20.455Z,49.80
2018-03-04T01:42:47.963Z,43.67
2018-03-04T01:45:16.278Z,54.10
2018-03-04T01:47:43.784Z,49.33
2018-03-04T01:50:12.012Z,40.90
2018-03-04T01:52:40.507Z,43.07
2018-03-04T01:55:07.984Z,40.50
2018-03-04T01:57:36.239Z,49.07
2018-03-04T02:00:03.720Z,44.23
2018-03-04T02:02:32.885Z,44.20
2018-03-04T02:05:01.317Z,51.43
2018-03-04T02:07:28.791Z,49.77
2018-03-04T02:09:56.266Z,50.57
2018-03-04T02:12:23.760Z,40.30
2018-03-04T02:14:52.004Z,47.57
2018-03-04T02:17:21.556Z,39.27
2018-03-04T02:19:50.047Z,50.80
2018-03-04T02:22:17.527Z,47.13
2018-03-04T02:24:45.632Z,50.07
2018-03-04T02:27:14.040Z,49.40
2018-03-04T02:29:41.538Z,44.40
2018-03-04T02:32:09.020Z,48.80
2018-03-04T02:34:37.259Z,47.80
2018-03-04T02:37:04.740Z,45.30
2018-03-04T02:39:33.706Z,48.67
2018-03-04T02:42:01.180Z,45.60
2018-03-04T02:44:29.732Z,42.77
2018-03-04T02:46:57.204Z,48.10
2018-03-04T02:49:24.684Z,48.57
2018-03-04T02:51:52.170Z,39.10
2018-03-04T02:54:19.723Z,47.77
2018-03-04T02:56:47.189Z,39.93
2018-03-04T02:59:14.676Z,40.73
2018-03-04T03:01:43.892Z,37.90
2018-03-04T03:04:11.369Z,49.17
2018-03-04T03:06:40.508Z,47.43
2018-03-04T03:09:08.004Z,37.70
2018-03-04T03:11:35.467Z,44.07
2018-03-04T03:14:03.673Z,45.67
2018-03-04T03:16:31.611Z,40.73
2018-03-04T03:19:00.578Z,40.30
2018-03-04T03:21:28.654Z,45.07
2018-03-04T03:23:57.235Z,33.37
2018-03-04T03:26:24.695Z,33.77
2018-03-04T03:28:52.195Z,43.03
2018-03-04T03:31:19.670Z,48.87
2018-03-04T03:33:47.142Z,43.17
2018-03-04T03:36:16.712Z,46.70
2018-03-04T03:38:45.958Z,43.17
2018-03-04T03:41:13.428Z,44.13
2018-03-04T03:43:40.891Z,45.63
2018-03-04T03:46:08.399Z,39.20
2018-03-04T03:48:35.900Z,39.50
2018-03-04T03:51:03.368Z,43.97
2018-03-04T03:53:31.642Z,41.77
2018-03-04T03:55:59.881Z,26.53
2018-03-04T04:11:28.157Z,35.30
2018-03-04T04:13:56.353Z,45.17
2018-03-04T04:16:25.551Z,45.03
2018-03-04T04:18:54.524Z,43.93
2018-03-04T04:21:22.792Z,43.47
2018-03-04T04:23:50.515Z,34.97
2018-03-04T04:26:18.005Z,43.33
2018-03-04T04:28:46.488Z,44.87
2018-03-04T04:31:13.972Z,38.73
2018-03-04T04:33:43.051Z,41.60
2018-03-04T04:36:11.790Z,48.00
2018-03-04T04:38:39.324Z,47.27
2018-03-04T04:41:06.846Z,45.10
2018-03-04T04:43:35.096Z,43.80
2018-03-04T04:46:02.574Z,45.60
2018-03-04T04:48:30.036Z,40.17
2018-03-04T04:50:59.034Z,43.47
2018-03-04T04:53:27.273Z,44.30
2018-03-04T04:55:54.774Z,47.50
2018-03-04T04:58:23.003Z,48.73
2018-03-04T05:00:50.487Z,48.47
2018-03-04T05:03:17.980Z,47.37
2018-03-04T05:05:45.466Z,47.10
2018-03-04T05:08:12.947Z,47.40
2018-03-04T05:10:40.973Z,42.70
2018-03-04T05:13:08.454Z,46.80
2018-03-04T05:15:37.356Z,40.50
2018-03-04T05:18:04.807Z,42.03
2018-03-04T05:20:33.803Z,45.07
2018-03-04T05:23:01.379Z,39.23
2018-03-04T05:25:29.624Z,44.80
2018-03-04T05:27:57.246Z,44.67
2018-03-04T05:30:24.739Z,45.73
2018-03-04T05:32:52.226Z,45.90
2018-03-04T05:35:20.459Z,45.43
2018-03-04T05:37:47.938Z,41.30
2018-03-04T05:40:15.413Z,40.60
2018-03-04T05:42:44.155Z,41.13
2018-03-04T05:45:11.618Z,45.97
2018-03-04T05:47:39.094Z,45.93
2018-03-04T05:50:06.558Z,48.30
2018-03-04T05:52:34.809Z,48.40
2018-03-04T05:55:03.578Z,41.40
2018-03-04T05:57:31.060Z,44.20
2018-03-04T05:59:58.524Z,45.33
2018-03-04T06:02:26.008Z,44.40
2018-03-04T06:04:53.550Z,42.40
2018-03-04T06:07:21.801Z,45.43
2018-03-04T06:09:49.287Z,48.13
2018-03-04T06:12:17.526Z,46.30
2018-03-04T06:14:45.029Z,44.93
2018-03-04T06:17:13.976Z,38.90
2018-03-04T06:19:41.451Z,42.10
2018-03-04T06:22:10.119Z,45.20
2018-03-04T06:24:37.619Z,33.93
2018-03-04T06:27:05.109Z,47.53
2018-03-04T06:29:32.687Z,44.07
2018-03-04T06:32:00.844Z,34.30
2018-03-04T06:34:28.336Z,46.10
2018-03-04T06:36:56.568Z,43.10
2018-03-04T06:39:24.032Z,35.23
2018-03-04T06:41:51.526Z,41.47
2018-03-04T06:44:19.766Z,44.23
2018-03-04T06:46:47.242Z,41.73
2018-03-04T06:49:15.491Z,34.40
2018-03-04T06:51:42.971Z,44.57
2018-03-04T06:54:10.439Z,39.87
2018-03-04T06:56:38.703Z,36.93
2018-03-04T06:59:06.188Z,39.93
2018-03-04T07:01:35.400Z,38.27
2018-03-04T07:04:02.869Z,44.20
2018-03-04T07:06:30.333Z,37.80
2018-03-04T07:08:57.798Z,38.70
2018-03-04T07:11:25.951Z,37.40
2018-03-04T07:13:54.485Z,40.47
2018-03-04T07:16:21.955Z,36.57
2018-03-04T07:18:50.534Z,41.63
2018-03-04T07:21:19.528Z,37.03
2018-03-04T07:23:47.776Z,38.13
2018-03-04T07:26:15.234Z,35.67
2018-03-04T07:28:42.718Z,40.20
2018-03-04T07:31:10.217Z,28.40
2018-03-04T07:33:37.694Z,33.03
2018-03-04T07:36:05.160Z,36.47
2018-03-04T07:38:34.268Z,36.93
2018-03-04T07:41:02.511Z,34.40
2018-03-04T07:43:30.767Z,35.73
2018-03-04T07:45:58.236Z,35.80
2018-03-04T07:48:25.731Z,33.87
2018-03-04T07:50:53.979Z,34.60
2018-03-04T07:53:21.454Z,29.67
2018-03-04T07:55:48.911Z,34.03
2018-03-04T07:58:17.372Z,32.63
2018-03-04T08:00:44.854Z,28.73
2018-03-04T08:03:13.083Z,36.23
2018-03-04T08:05:40.574Z,36.43
2018-03-04T08:08:08.837Z,34.83
2018-03-04T08:10:38.311Z,30.87
2018-03-04T08:13:05.796Z,37.00
2018-03-04T08:15:33.298Z,34.10
2018-03-04T08:18:00.774Z,34.87
2018-03-04T08:20:28.265Z,32.90
2018-03-04T08:22:55.730Z,35.10
2018-03-04T08:25:38.194Z,33.57
2018-03-04T08:28:17.587Z,25.97
2018-03-04T08:30:45.850Z,33.40
2018-03-04T08:33:14.084Z,35.33
2018-03-04T08:35:41.563Z,28.47
2018-03-04T08:38:09.612Z,34.23
2018-03-04T08:40:39.715Z,33.77
2018-03-04T08:43:08.096Z,35.93
2018-03-04T08:45:35.573Z,31.83
2018-03-04T08:48:04.533Z,31.27
2018-03-04T08:50:32.880Z,31.90
2018-03-04T08:53:01.286Z,27.77
2018-03-04T08:55:28.763Z,32.03
2018-03-04T08:57:56.241Z,32.50
2018-03-04T09:00:23.736Z,30.60
2018-03-04T09:02:51.225Z,32.27
2018-03-04T09:05:18.699Z,30.27
2018-03-04T09:07:46.174Z,30.97
2018-03-04T09:10:13.651Z,27.20
2018-03-04T09:12:41.913Z,33.13
2018-03-04T09:15:10.151Z,23.40
2018-03-04T09:17:37.640Z,30.33
2018-03-04T09:20:05.898Z,31.07
2018-03-04T09:22:33.398Z,36.33
2018-03-04T09:25:00.909Z,27.53
2018-03-04T09:27:28.417Z,29.37
2018-03-04T09:29:55.895Z,31.70
2018-03-04T09:32:23.376Z,26.97
2018-03-04T09:34:51.434Z,26.93
2018-03-04T09:37:18.913Z,30.53
2018-03-04T09:39:46.417Z,28.17
2018-03-04T09:42:13.898Z,30.20
2018-03-04T09:44:41.384Z,31.97
2018-03-04T09:47:09.033Z,27.57
2018-03-04T09:49:36.530Z,24.70
2018-03-04T09:52:04.001Z,32.57
2018-03-04T09:54:31.497Z,26.80
2018-03-04T09:56:59.897Z,33.47
2018-03-04T09:59:28.151Z,32.10
2018-03-04T10:01:55.727Z,32.80
2018-03-04T10:04:24.086Z,32.60
2018-03-04T10:06:51.563Z,31.17
2018-03-04T10:09:21.014Z,26.50
2018-03-04T10:11:48.503Z,29.13
2018-03-04T10:14:16.463Z,28.43
2018-03-04T10:16:43.943Z,25.87
2018-03-04T10:19:11.424Z,27.93
2018-03-04T10:21:41.077Z,23.87
2018-03-04T10:24:08.552Z,28.80
2018-03-04T10:26:36.155Z,34.23
2018-03-04T10:29:04.308Z,30.87
2018-03-04T10:31:32.795Z,31.47
2018-03-04T10:34:00.304Z,26.60
2018-03-04T10:36:27.776Z,28.93
2018-03-04T10:38:55.293Z,29.13
2018-03-04T10:41:22.772Z,25.67
2018-03-04T10:43:50.257Z,25.77
2018-03-04T10:46:18.495Z,27.67
2018-03-04T10:48:46.362Z,29.50
2018-03-04T10:51:13.835Z,28.30
2018-03-04T10:53:44.201Z,31.10
2018-03-04T10:56:12.585Z,29.73
2018-03-04T10:58:40.118Z,31.17
2018-03-04T11:01:10.415Z,31.00
2018-03-04T11:03:38.079Z,25.90
2018-03-04T11:06:06.339Z,25.97
2018-03-04T11:08:33.818Z,25.53
2018-03-04T11:11:01.302Z,27.70
2018-03-04T11:13:29.593Z,29.63
2018-03-04T11:15:58.267Z,29.90
2018-03-04T11:18:25.739Z,28.30
2018-03-04T11:20:53.376Z,28.23
2018-03-04T11:23:22.198Z,26.67
2018-03-04T11:25:49.714Z,25.20
2018-03-04T11:28:17.724Z,26.30
2018-03-04T11:30:45.246Z,25.97
2018-03-04T11:33:12.725Z,22.60
2018-03-04T11:35:41.809Z,26.63
2018-03-04T11:38:09.309Z,20.13
2018-03-04T11:40:36.815Z,23.73
2018-03-04T11:43:04.866Z,26.53
2018-03-04T11:45:33.934Z,27.23
2018-03-04T11:48:01.441Z,25.97
2018-03-04T11:50:28.935Z,24.23
2018-03-04T11:52:56.423Z,27.37
2018-03-04T11:55:23.910Z,26.87
2018-03-04T11:57:52.663Z,24.97
2018-03-04T12:00:20.951Z,25.23
2018-03-04T12:02:49.238Z,26.97
2018-03-04T12:05:16.734Z,27.27
2018-03-04T12:07:44.252Z,26.20
2018-03-04T12:10:12.677Z,26.47
2018-03-04T12:12:41.052Z,24.90
2018-03-04T12:15:08.557Z,25.83
2018-03-04T12:17:36.437Z,25.50
2018-03-04T12:20:05.019Z,22.47
2018-03-04T12:22:32.504Z,18.33
2018-03-04T12:25:01.081Z,21.43
2018-03-04T12:27:28.590Z,21.90
2018-03-04T12:29:57.627Z,22.23
2018-03-04T12:32:26.437Z,20.43
2018-03-04T12:34:53.968Z,22.67
2018-03-04T12:37:21.465Z,21.83
2018-03-04T12:39:49.362Z,15.07
2018-03-04T12:42:17.394Z,20.93
2018-03-04T12:44:44.885Z,22.23
2018-03-04T12:47:13.308Z,22.60
2018-03-04T12:49:41.748Z,23.00
2018-03-04T12:52:09.327Z,21.70
2018-03-04T12:54:36.813Z,23.50
2018-03-04T12:57:05.583Z,18.93
2018-03-04T12:59:33.356Z,21.90
2018-03-04T13:02:02.042Z,19.70
2018-03-04T13:04:30.197Z,19.80
2018-03-04T13:06:57.750Z,14.90
2018-03-04T13:09:25.440Z,17.67
2018-03-04T13:11:52.953Z,16.97
2018-03-04T13:14:20.790Z,19.33
2018-03-04T13:16:48.303Z,13.07
2018-03-04T13:19:15.794Z,19.20
2018-03-04T13:21:45.302Z,17.63
2018-03-04T13:24:14.286Z,16.40
2018-03-04T13:26:42.561Z,16.53
2018-03-04T13:29:10.105Z,14.30
2018-03-04T13:31:37.615Z,16.33
2018-03-04T13:34:05.163Z,15.10
2018-03-04T13:36:32.688Z,13.87
2018-03-04T13:39:01.334Z,13.00
2018-03-04T13:41:28.839Z,12.13
2018-03-04T13:43:57.453Z,14.90
2018-03-04T13:46:24.992Z,16.90
2018-03-04T13:48:53.559Z,13.00
2018-03-04T13:51:22.154Z,15.10
2018-03-04T13:53:49.704Z,14.50
2018-03-04T13:56:17.978Z,14.67
2018-03-04T13:58:45.475Z,15.23
2018-03-04T14:01:13.613Z,13.73
2018-03-04T14:03:41.924Z,12.77
2018-03-04T14:06:09.404Z,14.27
2018-03-04T14:08:37.717Z,13.70
2018-03-04T14:11:06.100Z,12.67
2018-03-04T14:13:35.752Z,11.37
2018-03-04T14:16:03.612Z,11.47
2018-03-04T14:18:31.102Z,9.07
2018-03-04T14:20:58.607Z,9.03
2018-03-04T14:23:26.523Z,11.93
2018-03-04T14:25:55.475Z,11.10
2018-03-04T14:28:22.955Z,8.33
2018-03-04T14:30:50.491Z,9.00
2018-03-04T14:33:17.962Z,9.50
2018-03-04T14:35:46.424Z,7.13
2018-03-04T14:38:13.931Z,7.97
2018-03-04T14:40:42.208Z,6.87
2018-03-04T14:43:10.476Z,7.57
2018-03-04T14:45:38.734Z,7.67
2018-03-04T14:48:07.034Z,8.37
2018-03-04T14:50:35.300Z,8.33
2018-03-04T14:53:03.618Z,8.90
2018-03-04T14:55:31.173Z,7.97
2018-03-04T14:57:58.660Z,9.93
2018-03-04T15:00:26.264Z,9.03
2018-03-04T15:02:55.216Z,9.63
2018-03-04T15:05:22.788Z,9.33
2018-03-04T15:07:50.406Z,8.80
2018-03-04T15:10:18.073Z,9.03
2018-03-04T15:12:45.569Z,8.80
2018-03-04T15:15:13.063Z,7.90
2018-03-04T15:17:40.565Z,8.37
2018-03-04T15:20:08.045Z,8.30
2018-03-04T15:22:35.559Z,9.33
2018-03-04T15:25:03.063Z,9.40
2018-03-04T15:27:31.328Z,9.03
2018-03-04T15:29:58.820Z,8.63
2018-03-04T15:32:26.301Z,9.33
2018-03-04T15:34:53.771Z,8.43
2018-03-04T15:37:21.894Z,8.07
2018-03-04T15:39:49.385Z,7.03
2018-03-04T15:42:16.865Z,7.57
2018-03-04T15:44:44.363Z,8.90
2018-03-04T15:47:11.870Z,8.20
2018-03-04T15:49:39.379Z,8.70
2018-03-04T15:52:06.864Z,9.70
2018-03-04T15:54:34.330Z,8.60
2018-03-04T15:57:02.394Z,9.07
2018-03-04T15:59:29.892Z,8.67
2018-03-04T16:01:58.876Z,9.00
2018-03-04T16:04:26.951Z,7.80
2018-03-04T16:07:08.318Z,6.60
2018-03-04T16:09:40.481Z,7.63
2018-03-04T16:12:08.018Z,7.70
2018-03-04T16:14:35.514Z,8.77
2018-03-04T16:17:03.041Z,9.00
2018-03-04T16:19:30.514Z,8.73
2018-03-04T16:21:58.040Z,9.53
2018-03-04T16:24:26.502Z,7.77
2018-03-04T16:26:54.313Z,8.53
2018-03-04T16:29:23.352Z,10.13
2018-03-04T16:31:50.919Z,9.37
2018-03-04T16:34:19.195Z,10.13
2018-03-04T16:36:46.712Z,10.77
2018-03-04T16:39:14.338Z,7.70
2018-03-04T16:41:42.743Z,9.50
2018-03-04T16:44:10.631Z,9.50
2018-03-04T16:46:38.910Z,9.80
2018-03-04T16:49:06.887Z,10.33
2018-03-04T16:51:34.509Z,10.10
2018-03-04T16:54:01.999Z,8.83
2018-03-04T16:56:29.491Z,10.23
2018-03-04T16:58:57.035Z,9.90
2018-03-04T17:01:24.506Z,9.47
2018-03-04T17:03:52.022Z,10.37
2018-03-04T17:06:19.507Z,10.10
2018-03-04T17:08:48.393Z,10.27
2018-03-04T17:11:15.866Z,11.13
2018-03-04T17:13:43.347Z,11.27
2018-03-04T17:16:11.804Z,10.07
2018-03-04T17:18:39.305Z,12.03
2018-03-04T17:21:07.604Z,11.23
2018-03-04T17:23:35.109Z,9.67
2018-03-04T17:26:03.678Z,10.60
2018-03-04T17:28:31.174Z,11.90
2018-03-04T17:30:59.452Z,10.87
2018-03-04T17:33:28.333Z,12.57
2018-03-04T17:35:57.331Z,11.07
2018-03-04T17:38:25.567Z,14.07
2018-03-04T17:40:53.051Z,13.70
2018-03-04T17:43:22.659Z,12.90
2018-03-04T17:45:51.701Z,13.97
2018-03-04T17:48:20.552Z,15.97
2018-03-04T18:00:33.888Z,14.50
2018-03-04T18:03:01.474Z,14.17
2018-03-04T18:05:29.727Z,12.73
2018-03-04T18:07:57.222Z,13.50
2018-03-04T18:10:25.578Z,14.63
2018-03-04T18:12:53.091Z,13.27
2018-03-04T18:15:20.576Z,14.03
2018-03-04T18:17:48.201Z,13.83
2018-03-04T18:20:16.328Z,15.50
2018-03-04T18:22:44.600Z,14.87
2018-03-04T18:25:12.859Z,15.63
2018-03-04T18:27:40.390Z,15.27
2018-03-04T18:30:07.867Z,14.93
2018-03-04T18:32:36.364Z,13.60
2018-03-04T18:35:04.620Z,16.80
2018-03-04T18:37:32.870Z,17.20
2018-03-04T18:40:00.404Z,18.73
2018-03-04T18:42:27.960Z,18.33
2018-03-04T18:44:56.553Z,18.63
2018-03-04T18:47:24.031Z,18.43
2018-03-04T18:49:52.209Z,20.40
2018-03-04T18:52:19.706Z,20.90
2018-03-04T18:54:47.972Z,21.30
2018-03-04T18:57:16.286Z,24.83
2018-03-04T18:59:44.886Z,23.77
2018-03-04T19:02:12.386Z,19.30
2018-03-04T19:04:39.922Z,25.33
2018-03-04T19:07:08.774Z,23.57
2018-03-04T19:09:36.250Z,24.83
2018-03-04T19:12:03.737Z,25.10
2018-03-04T19:14:32.407Z,24.17
2018-03-04T19:17:00.252Z,27.10
2018-03-04T19:19:27.735Z,27.30
2018-03-04T19:21:55.214Z,28.77
2018-03-04T19:24:23.480Z,31.07
2018-03-04T19:26:52.598Z,24.83
2018-03-04T19:29:20.098Z,27.13
2018-03-04T19:31:47.607Z,25.97
2018-03-04T19:34:15.126Z,24.67
2018-03-04T19:36:43.199Z,22.23
2018-03-04T19:39:10.693Z,28.30
2018-03-04T19:41:39.575Z,26.73
2018-03-04T19:44:07.740Z,27.23
2018-03-04T19:46:36.077Z,28.83
2018-03-04T19:49:05.288Z,27.97
2018-03-04T19:51:33.613Z,26.83
2018-03-04T19:54:01.108Z,26.20
2018-03-04T19:56:28.653Z,25.23
2018-03-04T19:58:56.210Z,25.17
2018-03-04T20:01:23.735Z,25.83
2018-03-04T20:03:51.228Z,27.73
2018-03-04T20:06:18.866Z,28.70
2018-03-04T20:08:46.354Z,29.63
2018-03-04T20:11:13.859Z,31.10
2018-03-04T20:13:41.335Z,29.73
2018-03-04T20:16:08.859Z,29.33
2018-03-04T20:18:36.531Z,30.20
2018-03-04T20:21:04.654Z,29.13
2018-03-04T20:23:32.168Z,31.63
2018-03-04T20:26:00.755Z,30.90
2018-03-04T20:28:28.288Z,28.90
2018-03-04T20:30:55.801Z,26.63
2018-03-04T20:33:23.297Z,28.17
2018-03-04T20:35:51.539Z,29.83
2018-03-04T20:38:19.393Z,29.57
2018-03-04T20:40:47.085Z,30.50
2018-03-04T20:43:15.372Z,25.33
2018-03-04T20:45:44.341Z,26.53
2018-03-04T20:48:11.844Z,28.53
2018-03-04T20:50:39.884Z,27.77
2018-03-04T20:53:07.854Z,30.23
2018-03-04T20:55:36.881Z,27.63
2018-03-04T20:58:06.723Z,29.30
2018-03-04T21:00:34.274Z,30.67
2018-03-04T21:03:02.408Z,27.63
2018-03-04T21:05:29.977Z,29.57
2018-03-04T21:07:57.591Z,25.57
2018-03-04T21:10:29.845Z,28.10
2018-03-04T21:13:00.172Z,26.87
2018-03-04T21:15:27.719Z,27.73
2018-03-04T21:17:57.122Z,26.13
2018-03-04T21:20:25.490Z,28.33
2018-03-04T21:22:53.690Z,29.60
2018-03-04T21:25:22.487Z,28.63
2018-03-04T21:27:51.755Z,26.83
2018-03-04T21:30:19.309Z,29.23
2018-03-04T21:32:47.704Z,26.50
2018-03-04T21:35:16.971Z,31.67
2018-03-04T21:37:47.223Z,27.70
2018-03-04T21:40:14.732Z,30.90
2018-03-04T21:42:42.317Z,26.33
2018-03-04T21:45:09.842Z,28.43
2018-03-04T21:47:38.110Z,28.30
2018-03-04T21:50:06.327Z,25.90
2018-03-04T21:52:34.724Z,29.43
2018-03-04T21:55:04.854Z,25.77
2018-03-04T21:57:34.954Z,26.77
2018-03-04T22:00:04.451Z,27.33
2018-03-04T22:02:32.717Z,30.83
2018-03-04T22:05:00.264Z,23.83
2018-03-04T22:07:29.310Z,26.20
2018-03-04T22:09:58.395Z,26.37
2018-03-04T22:12:27.461Z,30.90
2018-03-04T22:14:56.006Z,26.77
2018-03-04T22:33:38.550Z,21.07
2018-03-04T22:36:06.085Z,24.10
2018-03-04T22:38:34.407Z,22.73
2018-03-04T22:41:02.840Z,20.40
2018-03-04T22:43:31.021Z,19.63
2018-03-04T22:46:00.023Z,18.73
2018-03-04T22:48:27.503Z,17.70
2018-03-04T22:50:56.655Z,15.00
2018-03-04T22:53:24.921Z,14.23
2018-03-04T22:55:52.392Z,12.20
2018-03-04T22:58:20.699Z,12.10
2018-03-04T23:00:48.179Z,10.40
2018-03-04T23:03:15.669Z,10.13
2018-03-04T23:05:43.176Z,9.27
2018-03-04T23:08:10.647Z,8.53
2018-03-04T23:10:38.122Z,9.07
2018-03-04T23:13:05.592Z,7.30
2018-03-04T23:15:33.097Z,6.47
2018-03-04T23:18:00.584Z,6.57
2018-03-04T23:20:28.069Z,5.40
2018-03-04T23:22:56.320Z,5.07
2018-03-04T23:25:23.819Z,4.10
2018-03-04T23:27:51.340Z,3.90
2018-03-04T23:30:20.309Z,3.70
2018-03-04T23:32:47.774Z,3.07
2018-03-04T23:35:15.253Z,3.07
2018-03-04T23:37:42.761Z,2.93
2018-03-04T23:40:10.234Z,3.20
2018-03-04T23:42:37.865Z,2.90
2018-03-04T23:45:05.367Z,3.07
2018-03-04T23:47:32.925Z,2.93
2018-03-04T23:50:00.404Z,2.80
2018-03-04T23:52:28.766Z,2.63
2018-03-04T23:54:57.083Z,2.63
2018-03-04T23:57:24.571Z,2.60
2018-03-04T23:59:52.038Z,2.47
